createdAt,value
2023-03-03T00:02:26.997Z,1.00
2023-03-03T00:06:35.597Z,1.00
2023-03-03T00:10:45.139Z,99.90
2023-03-03T00:14:53.946Z,99.90
2023-03-03T00:19:02.591Z,99.90
2023-03-03T00:23:24.093Z,99.90
2023-03-03T00:27:37.298Z,99.90
2023-03-03T00:31:45.988Z,99.90
2023-03-03T00:35:54.620Z,99.90
2023-03-03T00:40:23.865Z,99.90
2023-03-03T00:44:50.433Z,99.90
2023-03-03T00:48:59.252Z,99.90
2023-03-03T00:53:16.807Z,1.00
2023-03-03T00:57:25.436Z,99.90
2023-03-03T01:01:34.025Z,1.00
2023-03-03T01:05:43.179Z,99.90
2023-03-03T01:09:51.744Z,1.00
2023-03-03T01:14:00.289Z,92.10
2023-03-03T01:18:10.670Z,99.90
2023-03-03T01:22:19.227Z,91.00
2023-03-03T01:26:28.106Z,1.00
2023-03-03T01:30:37.197Z,28.00
2023-03-03T01:34:45.754Z,1.00
2023-03-03T01:38:54.431Z,1.00
2023-03-03T01:43:03.163Z,99.90
2023-03-03T01:47:20.381Z,99.90
2023-03-03T01:51:38.213Z,99.90
2023-03-03T01:55:48.684Z,99.90
2023-03-03T02:00:00.581Z,99.90
2023-03-03T02:04:10.287Z,13.40
2023-03-03T02:08:22.280Z,26.60
2023-03-03T02:12:38.262Z,1.00
2023-03-03T02:16:46.917Z,1.00
2023-03-03T02:21:01.500Z,1.00
2023-03-03T02:25:13.143Z,97.40
2023-03-03T02:29:21.808Z,99.90
2023-03-03T02:33:30.746Z,1.00
2023-03-03T02:37:39.490Z,99.90
2023-03-03T02:45:57.869Z,1.00
2023-03-03T02:50:07.133Z,1.00
2023-03-03T02:54:17.030Z,1.00
2023-03-03T02:58:25.608Z,99.90
2023-03-03T03:02:34.171Z,99.90
2023-03-03T03:06:43.379Z,1.00
2023-03-03T03:10:52.616Z,99.90
2023-03-03T03:15:01.220Z,99.90
2023-03-03T03:19:09.871Z,99.90
2023-03-03T03:23:37.704Z,99.90
2023-03-03T03:27:46.383Z,1.00
2023-03-03T03:31:55.078Z,99.90
2023-03-03T03:36:06.167Z,99.90
2023-03-03T03:40:14.826Z,99.90
2023-03-03T03:44:25.304Z,1.00
2023-03-03T03:48:34.539Z,99.90
2023-03-03T03:52:43.800Z,1.00
2023-03-03T03:56:53.994Z,99.90
2023-03-03T04:01:08.315Z,99.90
2023-03-03T04:05:17.048Z,1.00
2023-03-03T04:09:25.679Z,99.90
2023-03-03T04:13:35.558Z,99.90
2023-03-03T04:17:44.582Z,99.90
2023-03-03T04:21:53.363Z,99.90
2023-03-03T04:26:01.947Z,12.70
2023-03-03T04:30:31.876Z,99.90
2023-03-03T04:34:40.518Z,99.90
2023-03-03T04:38:49.235Z,1.00
2023-03-03T04:42:57.769Z,1.00
2023-03-03T04:47:06.433Z,6.90
2023-03-03T04:51:16.761Z,1.00
2023-03-03T04:55:25.402Z,99.90
2023-03-03T04:59:34.004Z,99.90
2023-03-03T05:03:42.833Z,1.00
2023-03-03T05:07:51.460Z,1.00
2023-03-03T05:12:00.127Z,1.00
2023-03-03T05:16:09.142Z,1.00
2023-03-03T05:20:18.281Z,1.00
2023-03-03T05:24:27.096Z,1.00
2023-03-03T05:28:35.726Z,1.00
2023-03-03T05:32:44.356Z,1.00
2023-03-03T05:36:53.084Z,99.90
2023-03-03T05:41:01.719Z,99.90
2023-03-03T05:45:11.249Z,1.00
2023-03-03T05:49:20.310Z,58.40
2023-03-03T05:53:29.644Z,29.40
2023-03-03T05:57:38.486Z,55.30
2023-03-03T06:01:47.139Z,1.00
2023-03-03T06:05:55.753Z,99.90
2023-03-03T06:10:05.111Z,99.90
2023-03-03T06:14:13.707Z,21.00
2023-03-03T06:18:25.180Z,99.90
2023-03-03T06:22:33.947Z,1.00
2023-03-03T06:26:42.787Z,1.00
2023-03-03T06:30:55.890Z,1.00
2023-03-03T06:35:04.567Z,1.00
2023-03-03T06:39:13.170Z,1.00
2023-03-03T06:43:41.151Z,1.00
2023-03-03T06:48:09.028Z,1.00
2023-03-03T06:52:20.651Z,1.00
2023-03-03T06:56:29.458Z,1.00
2023-03-03T07:00:37.998Z,1.00
2023-03-03T07:04:48.483Z,1.00
2023-03-03T07:08:58.048Z,1.00
2023-03-03T07:13:26.512Z,1.00
2023-03-03T07:17:35.774Z,1.00
2023-03-03T07:21:44.499Z,1.00
2023-03-03T07:25:54.465Z,1.00
2023-03-03T07:30:24.205Z,1.00
2023-03-03T07:34:35.877Z,1.00
2023-03-03T07:38:47.576Z,1.00
2023-03-03T07:42:56.048Z,1.00
2023-03-03T07:47:16.823Z,1.00
2023-03-03T07:51:31.650Z,1.00
2023-03-03T07:55:41.642Z,99.90
2023-03-03T07:59:56.693Z,1.00
2023-03-03T08:04:26.265Z,99.90
2023-03-03T08:08:37.932Z,99.90
2023-03-03T08:12:49.187Z,1.00
2023-03-03T08:17:00.631Z,1.00
2023-03-03T08:21:28.577Z,1.00
2023-03-03T08:25:37.155Z,1.00
2023-03-03T08:29:47.581Z,1.00
2023-03-03T08:33:55.982Z,1.00
2023-03-03T08:38:05.781Z,1.00
2023-03-03T08:42:16.227Z,99.90
2023-03-03T08:46:24.592Z,99.90
2023-03-03T08:50:33.219Z,99.90
2023-03-03T08:54:41.828Z,99.90
2023-03-03T08:59:10.061Z,99.90
2023-03-03T09:03:18.615Z,99.90
2023-03-03T09:07:47.965Z,99.90
2023-03-03T09:11:59.454Z,99.90
2023-03-03T09:16:28.352Z,99.90
2023-03-03T09:20:48.805Z,99.90
2023-03-03T09:25:00.062Z,99.90
2023-03-03T09:29:17.448Z,99.90
2023-03-03T09:33:43.789Z,99.90
2023-03-03T09:37:54.101Z,99.90
2023-03-03T09:42:24.645Z,99.90
2023-03-03T09:46:54.406Z,99.90
2023-03-03T09:51:12.811Z,99.90
2023-03-03T09:55:39.534Z,99.90
2023-03-03T10:00:12.370Z,99.90
2023-03-03T10:04:26.786Z,99.90
2023-03-03T10:08:42.491Z,99.90
2023-03-03T10:13:12.559Z,99.90
2023-03-03T10:17:27.463Z,99.90
2023-03-03T10:21:44.664Z,99.90
2023-03-03T10:25:56.293Z,99.90
2023-03-03T10:30:38.206Z,99.90
2023-03-03T10:34:53.456Z,99.90
2023-03-03T10:39:24.518Z,64.00
2023-03-03T10:43:51.369Z,99.90
2023-03-03T10:48:30.312Z,41.20
2023-03-03T10:52:42.025Z,1.00
2023-03-03T10:57:05.587Z,1.00
2023-03-03T11:01:17.276Z,20.00
2023-03-03T11:05:37.962Z,3.70
2023-03-03T11:10:18.310Z,9.20
2023-03-03T11:14:41.646Z,1.00
2023-03-03T11:19:15.792Z,1.00
2023-03-03T11:23:45.597Z,1.00
2023-03-03T11:28:26.231Z,1.00
2023-03-03T11:32:41.289Z,1.00
2023-03-03T11:36:58.692Z,1.00
2023-03-03T11:41:34.147Z,1.00
2023-03-03T11:45:52.080Z,1.00
2023-03-03T11:50:06.873Z,1.00
2023-03-03T11:54:27.376Z,1.00
2023-03-03T11:58:39.015Z,1.00
2023-03-03T12:03:18.219Z,1.00
2023-03-03T12:07:53.404Z,1.00
2023-03-03T12:12:21.591Z,1.00
2023-03-03T12:16:40.633Z,1.00
2023-03-03T12:21:18.193Z,1.00
2023-03-03T12:25:54.422Z,1.00
2023-03-03T12:30:23.015Z,1.00
2023-03-03T12:34:46.699Z,1.00
2023-03-03T12:39:04.238Z,1.00
2023-03-03T12:43:24.901Z,1.00
2023-03-03T12:47:44.988Z,1.00
2023-03-03T12:52:02.489Z,1.00
2023-03-03T12:56:16.976Z,1.00
2023-03-03T13:00:40.630Z,1.00
2023-03-03T13:04:58.009Z,1.00
2023-03-03T13:09:24.623Z,1.00
2023-03-03T13:13:51.474Z,1.00
2023-03-03T13:18:27.658Z,1.00
2023-03-03T13:22:39.410Z,1.00
2023-03-03T13:27:00.365Z,1.00
2023-03-03T13:31:12.412Z,1.00
2023-03-03T13:35:42.582Z,1.00
2023-03-03T13:40:00.196Z,1.00
2023-03-03T13:44:23.915Z,1.00
2023-03-03T13:48:56.111Z,1.00
2023-03-03T13:53:27.099Z,1.00
2023-03-03T13:57:56.885Z,1.00
2023-03-03T14:02:28.785Z,1.00
2023-03-03T14:06:39.025Z,1.00
2023-03-03T14:11:25.950Z,1.00
2023-03-03T14:15:43.339Z,1.00
2023-03-03T14:20:16.081Z,1.00
2023-03-03T14:24:26.568Z,1.00
2023-03-03T14:28:51.207Z,1.00
2023-03-03T14:33:02.958Z,1.00
2023-03-03T14:37:28.959Z,1.00
2023-03-03T14:50:12.380Z,1.00
2023-03-03T14:54:29.666Z,1.00
2023-03-03T14:58:43.200Z,1.00
2023-03-03T15:03:08.482Z,1.00
2023-03-03T15:07:35.599Z,1.00
2023-03-03T15:11:45.903Z,1.00
2023-03-03T15:16:03.343Z,1.00
2023-03-03T15:20:18.120Z,1.00
2023-03-03T15:24:42.108Z,1.00
2023-03-03T15:29:16.224Z,1.00
2023-03-03T15:33:44.557Z,1.00
2023-03-03T15:38:17.310Z,1.00
2023-03-03T15:42:35.926Z,1.00
2023-03-03T15:47:03.651Z,1.00
2023-03-03T15:51:24.461Z,1.00
2023-03-03T15:55:54.598Z,1.00
2023-03-03T16:00:26.832Z,1.00
2023-03-03T16:04:39.155Z,1.00
2023-03-03T16:08:58.998Z,1.00
2023-03-03T16:13:16.239Z,1.00
2023-03-03T16:17:34.799Z,1.00
2023-03-03T16:21:52.301Z,1.00
2023-03-03T16:26:10.255Z,1.00
2023-03-03T16:30:21.953Z,1.00
2023-03-03T16:34:39.492Z,1.00
2023-03-03T16:39:15.670Z,1.00
2023-03-03T16:43:30.135Z,1.00
2023-03-03T16:48:01.362Z,1.00
2023-03-03T16:52:15.143Z,1.00
2023-03-03T16:56:35.297Z,1.00
2023-03-03T17:00:52.901Z,1.00
2023-03-03T17:05:05.156Z,1.00
2023-03-03T17:09:32.230Z,1.00
2023-03-03T17:13:48.661Z,1.00
2023-03-03T17:18:06.401Z,1.00
2023-03-03T17:22:46.773Z,1.00
2023-03-03T17:27:19.099Z,1.00
2023-03-03T17:31:42.796Z,1.00
2023-03-03T17:35:54.746Z,1.00
2023-03-03T17:40:27.743Z,1.00
2023-03-03T17:45:00.716Z,1.00
2023-03-03T17:49:18.321Z,1.00
2023-03-03T17:54:03.490Z,1.00
2023-03-03T17:58:35.960Z,1.00
2023-03-03T18:03:10.362Z,1.00
2023-03-03T18:07:44.667Z,1.00
2023-03-03T18:11:59.806Z,1.00
2023-03-03T18:16:35.930Z,1.00
2023-03-03T18:21:11.141Z,1.00
2023-03-03T18:25:26.616Z,1.00
2023-03-03T18:29:35.251Z,1.00
2023-03-03T18:34:10.695Z,1.00
2023-03-03T18:38:25.380Z,1.00
2023-03-03T18:42:53.981Z,1.00
2023-03-03T18:47:02.620Z,1.00
2023-03-03T18:51:11.336Z,1.00
2023-03-03T18:55:23.451Z,1.00
2023-03-03T18:59:37.687Z,1.00
2023-03-03T19:03:49.420Z,1.00
2023-03-03T19:08:20.902Z,1.00
2023-03-03T19:12:53.109Z,1.00
2023-03-03T19:17:20.933Z,1.00
2023-03-03T19:21:37.749Z,1.00
2023-03-03T19:25:46.480Z,1.00
2023-03-03T19:29:58.182Z,1.00
2023-03-03T19:34:15.707Z,1.00
2023-03-03T19:38:39.500Z,1.00
2023-03-03T19:42:58.594Z,1.00
2023-03-03T19:47:10.224Z,1.00
2023-03-03T19:51:54.586Z,1.00
2023-03-03T19:56:22.833Z,1.00
2023-03-03T20:00:37.092Z,1.00
2023-03-03T20:05:18.698Z,1.00
2023-03-03T20:09:38.965Z,1.00
2023-03-03T20:14:17.741Z,1.00
2023-03-03T20:19:02.908Z,1.00
2023-03-03T20:23:44.305Z,1.00
2023-03-03T20:28:04.942Z,1.00
2023-03-03T20:32:26.228Z,1.00
2023-03-03T20:36:40.790Z,1.00
2023-03-03T20:40:55.432Z,1.00
2023-03-03T20:45:25.362Z,1.00
2023-03-03T20:50:00.166Z,1.00
2023-03-03T20:54:14.932Z,1.00
2023-03-03T20:58:39.025Z,1.00
2023-03-03T21:03:16.333Z,1.00
2023-03-03T21:07:27.142Z,1.00
2023-03-03T21:11:38.806Z,1.00
2023-03-03T21:15:55.626Z,1.00
2023-03-03T21:20:27.697Z,1.00
2023-03-03T21:24:55.754Z,1.00
2023-03-03T21:29:04.300Z,1.00
2023-03-03T21:33:15.297Z,1.00
2023-03-03T21:37:44.710Z,1.00
2023-03-03T21:42:05.216Z,1.00
2023-03-03T21:46:14.717Z,1.00
2023-03-03T21:50:23.933Z,1.00
2023-03-03T21:54:32.541Z,1.00
2023-03-03T21:58:44.549Z,1.00
2023-03-03T22:02:54.739Z,1.00
2023-03-03T22:07:03.341Z,1.00
2023-03-03T22:11:12.437Z,1.00
2023-03-03T22:15:22.088Z,1.00
2023-03-03T22:19:31.221Z,1.00
2023-03-03T22:23:39.797Z,1.00
2023-03-03T22:27:48.344Z,1.00
2023-03-03T22:31:56.971Z,1.00
2023-03-03T22:36:06.215Z,1.00
2023-03-03T22:40:15.037Z,1.00
2023-03-03T22:44:45.749Z,1.00
2023-03-03T22:48:53.286Z,1.00
2023-03-03T22:53:01.933Z,1.00
2023-03-03T22:57:10.485Z,1.00
2023-03-03T23:01:19.068Z,1.00
2023-03-03T23:05:27.652Z,1.00
2023-03-03T23:09:36.542Z,1.00
2023-03-03T23:13:45.104Z,1.00
2023-03-03T23:17:53.657Z,1.00
2023-03-03T23:22:02.188Z,1.00
2023-03-03T23:26:10.831Z,1.00
2023-03-03T23:30:20.844Z,1.00
2023-03-03T23:34:29.753Z,1.00
2023-03-03T23:38:38.315Z,1.00
2023-03-03T23:42:48.590Z,1.00
2023-03-03T23:46:57.192Z,1.00
2023-03-03T23:51:06.192Z,1.00
2023-03-03T23:55:14.716Z,1.00
2023-03-03T23:59:23.247Z,1.00
